ADDS TAF Board (Experimental) INFO

IDs: Format: Expanded Condensed

Updated at: 1956 UTC 21 Oct 2014

KIAH - Houston/Bush Intl, TX, US

Issued at 1720 UTC 21 Oct 2014
Time1953Z21/20Z21/21Z21/22Z21/23Z22/00Z22/01Z22/02Z22/03Z22/04Z22/05Z22/06Z22/07Z22/08Z
TypeOBSPRVLPRVLPRVLPRVLPRVLPRVLPRVLPRVLPRVLPRVLPRVLPRVLPRVL
VIS10>6>6>6>6>6>6>6>6>6>6>6>6>6
CIG----------------------------
CoverFEWSCTSCTSCTSCTSCTSCTSCTSCTSCTSCTSCTSCTSCT
FltCat--VFRVFRVFRVFRVFRVFRVFRVFRVFRVFRVFRVFRVFR
WX----------------------------
WDir10090909090909090909090909090
WSpd89999999999999
WGst14--------------------------
R08/26
XWnd-10000000000000
XGst-2--------------------------
HWnd89999999999999
HGst14--------------------------
R09/27
XWnd-10000000000000
XGst-2--------------------------
HWnd89999999999999
HGst14--------------------------
R15/33
XWnd68888888888888
XGst11--------------------------
HWnd54444444444444
HGst9--------------------------
Raw TAF
KIAH 211720Z 2118/2224 09009KT P6SM SCT250

Raw METAR
KIAH 211953Z 10008G14KT 10SM FEW250 27/13 A3000 RMK AO2 SLP158 T02720128 $
KIAH 211853Z 06005KT 10SM CLR 27/12 A3002 RMK AO2 SLP165 T02670122

TAF Board Legend

Hazard VFR MVFR IFR LIFR
Visibility (sm) >5 3≤X≤5 1≤X<3 <1
Ceiling (100 ft) >30 10≤X≤30 5≤X<10 <5
Wind Speed (kt) <10 10≤X<20 20≤X<30 ≥30
Wind Gust (kt) <15 15≤X<25 25≤X<35 ≥35
Weather No Wx Reported VCTS,-TS,-FZRA TS,FZRA +TS,+FZRA


Page loaded:  19:56 UTC  |   12:56 PM Pacific  |   01:56 PM Mountain  |   02:56 PM Central  |   03:56 PM Eastern

 

ADVISORIES

FORECASTS

FORECASTS

OBSERVATIONS

USER TOOLS

ABOUT US